Time;durP1;ratioP1;P1;durP2;ratioP2;P2;SDS_P1;SDS_P2;PMS_P1;PMS_P2;Temp;Humidity;BMP_temperature;BMP_pressure;BME280_temperature;BME280_humidity;BME280_pressure;Samples;Min_cycle;Max_cycle;Signal;HPM_P1;HPM_P2
2022/01/18 00:01:26;;;;;;;25.60;16.47;;;3.80;99.90;;;2.31;99.77;99642.53;5077421;28;20445;-82
2022/01/18 00:03:54;;;;;;;24.10;17.40;;;3.80;99.90;;;2.22;100.00;99639.66;5075412;28;21000;-82
2022/01/18 00:06:21;;;;;;;25.47;18.40;;;3.70;99.90;;;2.28;100.00;99650.81;5075960;28;20542;-82
2022/01/18 00:08:49;;;;;;;26.07;19.10;;;3.70;99.90;;;2.31;100.00;99656.75;5075153;28;20438;-82
2022/01/18 00:11:17;;;;;;;24.33;17.70;;;3.80;99.90;;;2.23;100.00;99653.81;5057360;28;20468;-82
2022/01/18 00:13:47;;;;;;;27.23;19.30;;;3.70;99.90;;;2.15;100.00;99648.25;5074389;28;20488;-83
2022/01/18 00:16:30;;;;;;;27.70;17.77;;;3.70;99.90;;;2.12;100.00;99647.53;5074978;28;20433;-83
2022/01/18 00:19:05;;;;;;;26.60;18.80;;;3.70;99.90;;;2.17;100.00;99652.50;5074498;28;20657;-82
2022/01/18 00:21:48;;;;;;;28.20;18.37;;;3.70;99.90;;;2.23;100.00;99665.34;5056693;28;20499;-83
2022/01/18 00:24:15;;;;;;;25.27;17.80;;;3.70;99.90;;;2.14;100.00;99666.06;5074824;28;20919;-82
2022/01/18 00:26:42;;;;;;;27.10;19.73;;;3.60;99.90;;;2.15;100.00;99673.09;5073669;28;20846;-82
2022/01/18 00:29:12;;;;;;;25.30;17.63;;;3.60;99.90;;;2.16;100.00;99673.97;5075191;28;20442;-81
2022/01/18 00:32:01;;;;;;;27.03;18.93;;;3.60;99.90;;;2.22;100.00;99678.81;5073093;28;20438;-81
2022/01/18 00:34:32;;;;;;;26.83;18.43;;;3.60;99.90;;;2.19;100.00;99674.53;5057130;28;20529;-81
2022/01/18 00:37:12;;;;;;;26.37;19.43;;;3.70;99.90;;;2.24;100.00;99683.06;5072545;28;20454;-81
2022/01/18 00:39:41;;;;;;;25.90;18.70;;;3.70;99.90;;;2.16;100.00;99680.13;5073026;28;20459;-81
2022/01/18 00:42:10;;;;;;;30.00;18.43;;;3.70;99.90;;;2.14;100.00;99682.06;5056680;28;20442;-79
2022/01/18 00:44:37;;;;;;;26.07;17.87;;;3.60;99.90;;;2.11;100.00;99698.31;5074988;28;20461;-82
2022/01/18 00:47:04;;;;;;;26.57;20.43;;;3.60;99.90;;;2.12;100.00;99694.69;5074744;28;20457;-81
2022/01/18 00:49:40;;;;;;;28.50;18.00;;;3.60;99.90;;;2.12;100.00;99708.00;5074497;28;20446;-82
2022/01/18 00:52:08;;;;;;;24.93;18.10;;;3.60;99.90;;;2.06;100.00;99711.16;5075918;28;20534;-82
2022/01/18 00:54:39;;;;;;;26.57;18.10;;;3.60;99.90;;;2.16;100.00;99712.13;5077017;28;20517;-81
2022/01/18 00:57:07;;;;;;;25.00;17.97;;;3.60;99.90;;;2.24;100.00;99727.53;5078989;28;20440;-82
2022/01/18 00:59:34;;;;;;;27.17;19.10;;;3.60;99.90;;;2.08;100.00;99715.41;5081421;28;20505;-81
2022/01/18 01:02:01;;;;;;;28.20;19.20;;;3.60;99.90;;;2.03;100.00;99727.38;5069572;28;20459;-80
2022/01/18 01:04:32;;;;;;;28.83;19.87;;;3.50;99.90;;;1.97;100.00;99729.56;5086842;28;20503;-81
2022/01/18 01:07:01;;;;;;;22.63;17.10;;;3.50;99.90;;;1.92;100.00;99723.75;5071826;28;20518;-82
2022/01/18 01:09:28;;;;;;;25.10;18.57;;;3.40;99.90;;;1.85;100.00;99725.16;5070177;28;20473;-81
2022/01/18 01:11:55;;;;;;;25.30;17.40;;;3.40;99.90;;;1.82;100.00;99720.06;5069459;28;20498;-82
2022/01/18 01:14:25;;;;;;;26.40;17.97;;;3.40;99.90;;;1.91;100.00;99724.72;5089648;28;20429;-82
2022/01/18 01:17:03;;;;;;;28.70;19.00;;;3.40;99.90;;;2.02;100.00;99723.03;5098069;28;20441;-82
2022/01/18 01:33:49;;;;;;;25.03;16.43;;;3.30;99.90;;;1.77;100.00;99732.91;5077826;28;20450;-82
2022/01/18 01:36:33;;;;;;;23.73;16.30;;;3.30;99.90;;;1.76;100.00;99731.22;5058159;28;20858;-82
2022/01/18 01:42:15;;;;;;;28.90;17.90;;;3.30;99.90;;;1.83;100.00;99737.75;5074340;28;20425;-82
2022/01/18 01:44:46;;;;;;;27.37;17.00;;;3.30;99.90;;;1.78;100.00;99751.44;5073959;28;20450;-82
2022/01/18 01:47:20;;;;;;;26.63;18.23;;;3.30;99.90;;;1.92;100.00;99752.22;5074103;28;20436;-82
2022/01/18 01:49:50;;;;;;;24.47;17.07;;;3.40;99.90;;;1.81;100.00;99745.03;5056702;28;20449;-82
2022/01/18 01:52:20;;;;;;;31.60;18.60;;;3.30;99.90;;;2.01;100.00;99755.97;5073815;28;20441;-81
2022/01/18 01:54:49;;;;;;;29.20;17.77;;;3.40;99.90;;;2.11;100.00;99751.66;5073352;28;20445;-82
2022/01/18 01:57:16;;;;;;;26.60;17.37;;;3.50;99.90;;;1.99;100.00;99750.78;5073385;28;20438;-81
2022/01/18 01:59:43;;;;;;;28.63;19.53;;;3.40;99.90;;;1.92;100.00;99742.41;5073552;28;20549;-81
2022/01/18 02:02:10;;;;;;;25.30;18.00;;;3.40;99.90;;;1.51;100.00;99696.59;5074430;28;20476;-81
2022/01/18 02:04:37;;;;;;;27.13;17.80;;;3.40;99.90;;;2.04;100.00;99740.59;5056574;28;20540;-81
2022/01/18 02:07:04;;;;;;;27.13;17.93;;;3.50;99.90;;;2.00;100.00;99739.16;5057107;28;20446;-81
2022/01/18 02:09:31;;;;;;;26.30;17.77;;;3.40;99.90;;;1.84;100.00;99734.13;5076152;28;20543;-81
2022/01/18 02:12:01;;;;;;;28.77;18.30;;;3.30;99.90;;;1.74;100.00;99725.13;5077642;28;20446;-80
2022/01/18 02:14:31;;;;;;;27.20;17.03;;;3.30;99.90;;;1.75;100.00;99725.03;5080139;28;20454;-81
2022/01/18 02:22:26;;;;;;;30.80;18.07;;;3.30;99.90;;;1.75;100.00;99733.03;5078129;28;20914;-82
2022/01/18 02:24:53;;;;;;;26.63;18.07;;;3.30;99.90;;;1.72;100.00;99735.06;5077617;28;20440;-81
2022/01/18 02:27:20;;;;;;;26.80;16.30;;;3.30;99.90;;;1.63;100.00;99713.50;5076562;28;20786;-81
2022/01/18 02:29:47;;;;;;;27.30;17.40;;;3.20;99.90;;;1.72;100.00;99721.75;5076754;28;20443;-82
2022/01/18 02:32:14;;;;;;;25.27;16.87;;;3.30;99.90;;;1.72;100.00;99721.75;5076813;28;20434;-83
2022/01/18 02:34:41;;;;;;;24.23;16.77;;;3.20;99.90;;;1.86;100.00;99739.34;5077083;28;20524;-84
2022/01/18 02:37:10;;;;;;;25.47;17.00;;;3.30;99.90;;;1.82;100.00;99730.75;5076768;28;20858;-82
2022/01/18 02:39:39;;;;;;;25.10;17.20;;;3.30;99.90;;;1.70;100.00;99725.38;5077079;28;20501;-81
2022/01/18 02:42:10;;;;;;;27.87;16.10;;;3.30;99.90;;;1.70;100.00;99729.88;5059261;28;20470;-83
2022/01/18 02:44:38;;;;;;;26.57;15.87;;;3.20;99.90;;;1.82;99.81;99736.94;5077093;28;20443;-84
2022/01/18 02:47:05;;;;;;;27.67;16.27;;;3.30;99.90;;;1.86;99.62;99724.19;5058908;28;20456;-85
2022/01/18 02:49:33;;;;;;;24.37;15.50;;;3.30;99.90;;;1.95;99.06;99719.97;5076570;28;20918;-84
2022/01/18 02:52:01;;;;;;;29.93;15.60;;;3.40;99.90;;;1.47;99.21;99657.00;5077598;28;20445;-84
2022/01/18 02:54:28;;;;;;;26.07;15.80;;;3.30;99.90;;;1.66;99.19;99702.59;5060543;28;20447;-84
2022/01/18 02:57:00;;;;;;;29.33;16.50;;;3.30;99.90;;;1.70;99.71;99717.38;5077194;28;20521;-85
2022/01/18 02:59:33;;;;;;;17.90;13.23;;;3.20;99.90;;;1.71;99.13;99712.91;5059964;28;20521;-83
2022/01/18 03:04:49;;;;;;;21.20;12.20;;;3.20;99.90;;;1.60;97.76;99716.41;5076225;28;20542;-81
2022/01/18 03:07:17;;;;;;;21.20;13.30;;;3.10;99.90;;;1.62;98.25;99719.78;5075232;28;20441;-81
2022/01/18 03:09:45;;;;;;;21.20;11.30;;;3.10;99.90;;;1.64;97.56;99712.53;5076866;28;20460;-82
2022/01/18 03:12:14;;;;;;;26.00;12.50;;;3.10;99.90;;;1.67;97.65;99722.94;5074939;28;20579;-82
2022/01/18 03:14:41;;;;;;;18.27;11.23;;;3.10;99.90;;;1.56;97.87;99730.88;5076570;28;20443;-82
2022/01/18 03:17:08;;;;;;;27.73;13.20;;;3.10;99.90;;;1.62;98.23;99718.91;5058321;28;20441;-82
2022/01/18 03:19:36;;;;;;;20.40;11.30;;;3.10;99.90;;;1.53;98.26;99725.78;5076071;28;20877;-82
2022/01/18 03:22:04;;;;;;;21.23;11.77;;;3.10;99.90;;;1.50;98.28;99734.03;5076505;28;20506;-80
2022/01/18 03:30:00;;;;;;;21.33;12.00;;;3.20;99.90;;;1.69;97.58;99747.66;5075050;28;20447;-81
2022/01/18 03:32:27;;;;;;;25.60;12.47;;;3.20;99.90;;;1.62;98.00;99751.75;5074657;28;20469;-81
2022/01/18 03:34:54;;;;;;;20.13;12.00;;;3.10;99.90;;;1.53;98.48;99757.78;5077072;28;20588;-80
2022/01/18 03:37:21;;;;;;;20.33;12.30;;;3.10;99.90;;;1.51;99.22;99765.88;5077340;28;20441;-81
2022/01/18 03:39:48;;;;;;;18.33;11.20;;;3.10;99.90;;;1.53;98.53;99763.09;5059500;28;20552;-80
2022/01/18 03:42:37;;;;;;;23.57;11.70;;;3.10;99.90;;;1.41;99.16;99771.03;5076893;28;20434;-79
2022/01/18 03:45:07;;;;;;;16.17;11.90;;;3.00;99.90;;;1.38;99.36;99771.25;5058207;28;20895;-79
2022/01/18 03:47:35;;;;;;;25.57;12.47;;;2.90;99.90;;;1.36;99.20;99775.84;5075221;28;20508;-80
2022/01/18 03:50:04;;;;;;;20.97;12.00;;;2.90;99.90;;;1.35;99.81;99776.81;5074924;28;20465;-80
2022/01/18 03:52:31;;;;;;;22.97;11.37;;;2.90;99.90;;;1.34;99.70;99769.78;5076241;28;20441;-80
2022/01/18 03:54:58;;;;;;;19.43;10.27;;;2.90;99.90;;;1.20;99.52;99751.31;5073876;28;20525;-79
2022/01/18 03:57:27;;;;;;;22.73;11.40;;;2.90;99.90;;;1.24;100.00;99769.63;5074979;28;20444;-76
2022/01/18 03:59:53;;;;;;;16.50;10.30;;;2.80;99.90;;;1.27;100.00;99757.88;5074818;28;20462;-77
2022/01/18 04:02:20;;;;;;;18.53;11.10;;;2.70;99.90;;;1.27;99.48;99760.53;5075032;28;20457;-79
2022/01/18 04:04:47;;;;;;;20.83;11.57;;;2.80;99.90;;;1.31;99.89;99759.38;5075295;28;20445;-81
2022/01/18 04:07:15;;;;;;;24.17;11.50;;;2.80;99.90;;;1.47;99.38;99760.91;5057281;28;20442;-79
2022/01/18 04:09:41;;;;;;;18.13;10.30;;;2.80;99.90;;;1.47;99.17;99758.25;5073450;28;20526;-79
2022/01/18 04:12:10;;;;;;;20.40;10.40;;;2.90;99.90;;;1.48;99.19;99763.44;5076048;28;20501;-80
2022/01/18 04:14:38;;;;;;;21.17;10.50;;;2.90;99.90;;;1.48;99.41;99754.59;5075461;28;20426;-81
2022/01/18 04:17:13;;;;;;;19.77;9.67;;;2.90;99.90;;;1.42;99.46;99751.41;5075478;28;20438;-80
2022/01/18 04:28:02;;;;;;;25.73;11.13;;;2.90;99.90;;;1.49;99.76;99756.31;5076943;28;20445;-83
2022/01/18 04:30:30;;;;;;;24.23;11.03;;;2.90;99.90;;;1.50;99.66;99756.19;5056792;28;20515;-82
2022/01/18 04:32:57;;;;;;;19.03;11.63;;;3.00;99.90;;;1.48;99.69;99757.28;5057036;28;20810;-83
2022/01/18 04:35:24;;;;;;;16.63;10.70;;;3.00;99.90;;;1.56;99.64;99754.88;5057169;28;20790;-82
2022/01/18 04:37:51;;;;;;;22.60;11.10;;;3.00;99.90;;;1.81;98.90;99761.88;5056895;28;20530;-82
2022/01/18 04:40:19;;;;;;;18.80;10.20;;;3.10;99.90;;;1.95;97.45;99757.31;5074839;28;20465;-82
2022/01/18 04:48:28;;;;;;;17.97;11.20;;;3.50;99.90;;;1.82;97.22;99776.06;5074897;28;20434;-82
2022/01/18 04:50:58;;;;;;;19.37;11.37;;;3.30;99.90;;;1.82;98.16;99768.06;5075332;28;20468;-82
2022/01/18 04:53:26;;;;;;;17.27;11.10;;;3.30;99.90;;;1.38;98.07;99725.97;5074893;28;20430;-82
2022/01/18 04:55:56;;;;;;;21.13;11.50;;;3.20;99.90;;;1.79;98.37;99768.28;5056901;28;20446;-82
2022/01/18 04:58:24;;;;;;;19.23;11.20;;;3.30;99.90;;;1.86;98.40;99769.50;5076004;28;20450;-79
2022/01/18 05:00:55;;;;;;;21.53;11.27;;;3.20;99.90;;;1.77;98.24;99773.72;5080453;28;20461;-82
2022/01/18 05:03:23;;;;;;;17.07;12.07;;;3.30;99.90;;;1.80;98.49;99783.31;5091288;28;20445;-82
2022/01/18 05:05:52;;;;;;;25.90;13.20;;;3.20;99.90;;;1.77;98.63;99786.22;5080201;28;20476;-82
2022/01/18 05:08:19;;;;;;;24.00;11.90;;;3.20;99.90;;;1.79;98.24;99786.94;5096252;28;20448;-83
2022/01/18 05:10:51;;;;;;;21.43;11.13;;;3.20;99.90;;;1.80;98.39;99788.66;5089143;28;20437;-80
2022/01/18 05:13:35;;;;;;;22.20;12.10;;;3.20;99.90;;;1.69;97.89;99794.78;5074919;28;20890;-82
2022/01/18 05:16:21;;;;;;;19.37;11.57;;;3.20;99.90;;;1.90;97.22;99789.66;5075049;28;20430;-84
2022/01/18 05:19:10;;;;;;;18.97;11.90;;;3.30;99.90;;;1.93;96.31;99788.56;5073067;28;20798;-82
2022/01/18 05:24:19;;;;;;;21.00;10.80;;;3.40;99.90;;;1.98;95.21;99789.09;5055469;28;20446;-82
2022/01/18 05:26:46;;;;;;;18.60;10.10;;;3.40;99.90;;;1.73;94.77;99750.94;5074474;28;20533;-82
2022/01/18 05:29:13;;;;;;;16.03;10.77;;;3.40;99.50;;;1.92;95.36;99790.41;5074839;28;20446;-82
2022/01/18 05:31:42;;;;;;;18.23;12.03;;;3.40;98.30;;;2.00;94.61;99796.94;5075913;28;20466;-83
2022/01/18 05:34:09;;;;;;;20.13;10.23;;;3.50;97.60;;;1.98;95.43;99799.75;5076397;28;20441;-82
2022/01/18 05:36:36;;;;;;;18.80;10.57;;;3.50;99.50;;;2.06;95.25;99797.34;5074651;28;20854;-82
2022/01/18 05:39:03;;;;;;;18.43;9.80;;;3.50;98.50;;;1.98;95.04;99815.75;5074730;28;20441;-85
2022/01/18 05:41:31;;;;;;;18.07;10.47;;;3.50;97.70;;;1.88;95.56;99794.25;5076550;28;20453;-86
2022/01/18 05:43:58;;;;;;;22.03;11.53;;;3.50;99.30;;;2.10;94.51;99819.28;5087718;28;20429;-86
2022/01/18 05:46:25;;;;;;;31.77;15.40;;;3.50;98.30;;;2.12;95.32;99822.69;5080200;28;20541;-87
2022/01/18 05:48:53;;;;;;;34.57;17.20;;;3.50;99.00;;;2.23;94.94;99836.06;5081001;28;20443;-86
2022/01/18 05:51:21;;;;;;;23.90;13.03;;;3.60;99.90;;;2.08;95.62;99843.41;5081818;28;20445;-88
2022/01/18 05:53:48;;;;;;;24.60;11.90;;;3.50;99.10;;;2.07;94.83;99830.19;5068807;28;20527;-87
2022/01/18 05:56:16;;;;;;;24.83;12.23;;;3.60;99.80;;;2.17;94.64;99835.69;5084829;28;20470;-88
2022/01/18 05:58:44;;;;;;;19.23;12.10;;;3.60;98.70;;;2.30;93.99;99835.59;5067977;28;20642;-79
2022/01/18 06:01:13;;;;;;;22.13;12.07;;;3.70;97.90;;;1.70;94.97;99738.69;5083411;28;20453;-89
2022/01/18 06:03:53;;;;;;;28.40;16.70;;;3.70;99.60;;;2.49;94.76;99838.53;5094310;28;20429;-90
2022/01/18 06:09:06;;;;;;;23.17;13.90;;;3.80;99.00;;;2.26;94.83;99841.16;5091962;28;20463;-90
2022/01/18 06:11:34;;;;;;;18.20;11.37;;;3.70;98.60;;;2.26;95.36;99843.81;5093945;28;20441;-92
2022/01/18 06:14:01;;;;;;;21.80;13.97;;;3.70;99.60;;;2.32;96.12;99836.31;5087551;28;20451;-83
2022/01/18 06:16:28;;;;;;;23.37;13.53;;;3.70;99.90;;;2.35;94.93;99834.25;5082608;28;20429;-85
2022/01/18 06:18:56;;;;;;;27.27;13.50;;;3.90;99.90;;;2.38;94.62;99836.69;5060439;28;20541;-84
2022/01/18 06:21:25;;;;;;;27.07;14.93;;;3.80;99.70;;;2.70;96.36;99840.50;5078279;28;20476;-84
2022/01/18 06:23:52;;;;;;;24.07;14.93;;;4.00;99.90;;;2.58;95.17;99849.47;5079270;28;20438;-84
2022/01/18 06:26:19;;;;;;;21.40;15.37;;;4.00;99.90;;;2.40;95.28;99850.75;5078864;28;20908;-85
2022/01/18 06:28:47;;;;;;;39.23;22.83;;;4.00;98.60;;;2.47;95.70;99858.31;5079095;28;20465;-83
2022/01/18 06:31:14;;;;;;;26.60;16.67;;;3.90;99.90;;;2.28;95.41;99858.84;5060135;28;20508;-84
2022/01/18 06:33:41;;;;;;;27.10;16.67;;;3.80;99.50;;;2.42;95.46;99866.66;5060423;28;20936;-84
2022/01/18 06:36:08;;;;;;;27.30;15.17;;;3.70;99.90;;;2.53;94.10;99866.69;5078385;28;20509;-84
2022/01/18 06:38:37;;;;;;;24.17;15.47;;;3.80;99.90;;;2.41;94.41;99860.47;5060205;28;20476;-84
2022/01/18 06:41:04;;;;;;;17.90;13.07;;;3.80;98.70;;;2.32;94.22;99865.66;5078066;28;20464;-84
2022/01/18 06:43:31;;;;;;;21.60;15.20;;;3.70;98.00;;;2.29;94.48;99860.56;5081827;28;20907;-83
2022/01/18 06:45:59;;;;;;;26.83;14.77;;;3.70;98.70;;;2.32;94.72;99866.53;5078242;28;20927;-84
2022/01/18 06:48:26;;;;;;;20.93;13.97;;;3.70;99.60;;;2.30;94.54;99871.13;5078315;28;20465;-79
2022/01/18 06:50:53;;;;;;;24.50;15.20;;;3.70;99.10;;;2.38;95.12;99870.53;5058786;28;20534;-79
2022/01/18 06:53:20;;;;;;;21.27;13.43;;;3.70;99.90;;;2.36;94.24;99873.31;5061169;28;20524;-78
2022/01/18 06:55:52;;;;;;;22.50;14.50;;;3.80;97.70;;;2.31;94.36;99875.50;5059319;28;20445;-80
2022/01/18 06:58:19;;;;;;;20.30;12.77;;;3.70;98.80;;;2.43;93.45;99876.38;5076242;28;20925;-77
2022/01/18 07:00:46;;;;;;;21.30;13.13;;;3.80;97.60;;;2.46;93.33;99878.78;5073396;28;20469;-78
2022/01/18 07:03:13;;;;;;;22.30;12.77;;;3.80;97.10;;;2.46;93.35;99883.28;5075119;28;20940;-78
2022/01/18 07:05:40;;;;;;;21.50;14.50;;;3.80;96.30;;;2.31;93.03;99891.50;5080473;28;20481;-78
2022/01/18 07:08:07;;;;;;;21.63;13.57;;;3.80;95.50;;;2.23;94.46;99889.41;5085988;28;20451;-78
2022/01/18 07:10:34;;;;;;;22.37;14.13;;;3.70;97.00;;;2.21;94.51;99901.16;5064937;28;20513;-78
2022/01/18 07:13:02;;;;;;;20.90;13.93;;;3.70;97.80;;;2.02;94.64;99897.19;5083481;28;20446;-79
2022/01/18 07:15:29;;;;;;;22.10;14.90;;;3.50;97.40;;;2.00;95.42;99895.59;5080701;28;20461;-77
2022/01/18 07:17:56;;;;;;;22.17;13.67;;;3.50;98.80;;;2.04;95.01;99905.06;5076523;28;20427;-79
2022/01/18 07:20:23;;;;;;;24.03;15.30;;;3.50;99.40;;;2.08;95.37;99907.41;5076383;28;20445;-78
2022/01/18 07:22:50;;;;;;;23.90;15.60;;;3.50;99.90;;;2.22;94.32;99906.38;5075527;28;20463;-79
2022/01/18 07:25:18;;;;;;;22.33;15.73;;;3.60;99.20;;;2.07;94.72;99912.88;5075768;28;20476;-80
2022/01/18 07:27:45;;;;;;;22.07;14.93;;;3.50;98.50;;;1.56;94.89;99840.13;5074301;28;20787;-79
2022/01/18 07:30:13;;;;;;;22.70;14.70;;;3.50;98.90;;;2.15;94.54;99923.78;5075825;28;20509;-80
2022/01/18 07:32:40;;;;;;;23.73;13.30;;;3.50;99.90;;;2.05;94.72;99917.47;5076098;28;20438;-79
2022/01/18 07:35:09;;;;;;;21.17;14.20;;;3.50;98.40;;;1.73;94.62;99854.03;5058505;28;20447;-79
2022/01/18 07:37:36;;;;;;;18.57;13.80;;;3.60;98.40;;;2.17;94.11;99926.34;5057567;28;20788;-78
2022/01/18 07:40:05;;;;;;;26.13;14.23;;;3.60;96.80;;;2.16;94.39;99930.81;5058204;28;20788;-78
2022/01/18 07:42:33;;;;;;;20.57;13.20;;;3.60;96.90;;;2.09;93.78;99935.75;5075165;28;20461;-77
2022/01/18 07:44:59;;;;;;;17.93;12.27;;;3.60;96.70;;;2.13;94.10;99939.06;5073759;28;20449;-79
2022/01/18 07:47:28;;;;;;;19.50;12.80;;;3.50;97.30;;;2.36;94.47;99949.84;5057004;28;20481;-78
2022/01/18 07:49:55;;;;;;;21.03;12.73;;;3.70;98.40;;;2.32;93.24;99940.34;5076328;28;20916;-77
2022/01/18 07:52:21;;;;;;;19.23;11.70;;;3.70;96.00;;;2.32;92.73;99945.69;5075178;28;20489;-77
2022/01/18 07:54:48;;;;;;;21.17;12.43;;;3.70;95.10;;;2.29;92.69;99951.25;5074815;28;20533;-77
2022/01/18 07:57:15;;;;;;;18.73;12.30;;;3.70;95.00;;;2.19;92.66;99948.44;5075344;28;20477;-76
2022/01/18 07:59:42;;;;;;;18.70;11.63;;;3.60;94.60;;;2.21;92.21;99958.03;5074703;28;20452;-76
2022/01/18 08:02:09;;;;;;;20.70;14.30;;;3.70;94.60;;;2.26;92.78;99957.66;5056859;28;21059;-76
2022/01/18 08:04:38;;;;;;;20.73;12.20;;;3.70;95.30;;;2.44;91.66;99965.28;5056645;28;20592;-76
2022/01/18 08:07:05;;;;;;;21.70;14.30;;;3.80;94.70;;;2.39;91.55;99952.28;5057276;28;20445;-77
2022/01/18 08:09:32;;;;;;;16.93;11.80;;;3.80;93.70;;;2.39;92.06;99952.28;5074743;28;20813;-78
2022/01/18 08:11:59;;;;;;;16.47;11.63;;;3.90;93.90;;;2.44;92.69;99949.28;5074061;28;20528;-77
2022/01/18 08:14:29;;;;;;;14.27;9.67;;;3.90;94.10;;;2.39;91.00;99957.63;5059252;28;20484;-78
2022/01/18 08:17:05;;;;;;;20.03;12.03;;;3.90;92.90;;;2.68;91.32;99957.22;5074505;28;20623;-77
2022/01/18 08:19:35;;;;;;;14.63;9.73;;;4.00;93.40;;;2.68;90.14;99951.91;5075115;28;20482;-76
2022/01/18 08:22:04;;;;;;;14.03;9.30;;;4.10;92.50;;;2.60;90.65;99948.94;5074207;28;20532;-73
2022/01/18 08:24:31;;;;;;;13.97;9.40;;;4.10;92.70;;;2.43;90.62;99953.75;5074264;28;20988;-78
2022/01/18 08:26:58;;;;;;;13.30;7.87;;;4.00;91.80;;;2.59;90.65;99952.59;5074287;28;20475;-76
2022/01/18 08:29:25;;;;;;;16.03;9.47;;;4.00;92.20;;;2.71;89.26;99956.13;5074075;28;20433;-77
2022/01/18 08:31:52;;;;;;;16.20;10.00;;;4.10;91.10;;;2.71;89.63;99957.00;5074082;28;20532;-76
2022/01/18 08:34:21;;;;;;;17.30;11.93;;;4.20;91.20;;;2.64;89.62;99961.06;5056858;28;20524;-77
2022/01/18 08:36:48;;;;;;;13.30;9.73;;;4.10;91.60;;;2.83;88.94;99952.53;5074143;28;20928;-76
2022/01/18 08:39:16;;;;;;;15.17;10.10;;;4.20;91.50;;;2.98;87.97;99953.19;5074141;28;20431;-76
2022/01/18 08:41:43;;;;;;;17.43;11.37;;;4.30;90.90;;;2.95;89.12;99956.91;5056025;28;21002;-75
2022/01/18 08:44:10;;;;;;;16.70;9.40;;;4.30;90.90;;;2.99;88.42;99962.88;5074360;28;20452;-70
2022/01/18 08:46:37;;;;;;;16.53;9.37;;;4.40;90.60;;;2.83;88.30;99955.19;5072706;28;20849;-72
2022/01/18 08:49:07;;;;;;;15.40;8.67;;;4.30;90.40;;;2.53;89.19;99960.09;5075118;28;20446;-71
2022/01/18 08:51:34;;;;;;;19.77;10.10;;;4.10;91.00;;;2.55;89.74;99966.16;5074620;28;20430;-72
2022/01/18 08:54:02;;;;;;;11.07;6.83;;;4.00;92.00;;;2.57;89.65;99959.84;5074775;28;20425;-75
2022/01/18 08:56:31;;;;;;;10.40;6.47;;;4.00;92.10;;;2.63;88.68;99954.91;5075923;28;20568;-75
2022/01/18 08:58:59;;;;;;;8.80;4.83;;;4.00;91.50;;;1.79;88.19;99826.94;5074089;28;20437;-79
2022/01/18 09:01:26;;;;;;;9.63;5.60;;;4.00;91.00;;;2.66;87.60;99956.50;5055782;28;20981;-74
2022/01/18 09:03:53;;;;;;;16.30;6.00;;;4.10;90.50;;;2.91;86.89;99946.59;5072357;28;20434;-73
2022/01/18 09:06:22;;;;;;;11.77;6.23;;;4.30;90.10;;;3.29;87.16;99965.94;5055817;28;20481;-74
2022/01/18 09:08:55;;;;;;;10.27;5.47;;;4.50;90.30;;;3.59;85.12;99960.00;5073257;28;20438;-74
2022/01/18 09:11:23;;;;;;;11.73;6.65;;;4.80;88.00;;;3.78;84.37;99950.50;5078204;28;20433;-76
2022/01/18 09:13:53;;;;;;;7.40;5.30;;;5.10;86.50;;;3.69;83.09;99941.41;5081446;28;20188;-75
2022/01/18 09:16:20;;;;;;;8.83;4.60;;;5.20;84.30;;;3.97;82.24;99965.91;5074317;28;20506;-76
2022/01/18 09:18:47;;;;;;;9.80;4.83;;;5.30;83.30;;;4.04;82.02;99968.94;5073613;28;20621;-77
2022/01/18 09:21:16;;;;;;;8.23;5.30;;;5.40;82.40;;;4.04;81.92;99974.28;5073554;28;20437;-77
2022/01/18 09:23:43;;;;;;;8.53;4.40;;;5.40;82.60;;;4.26;80.68;99976.03;5055841;28;20433;-77
2022/01/18 09:26:13;;;;;;;7.17;4.07;;;5.60;82.20;;;4.10;80.15;99971.09;5055579;28;20800;-77
2022/01/18 09:28:41;;;;;;;10.00;4.80;;;5.50;81.30;;;4.09;80.83;99974.75;5072425;28;20444;-77
2022/01/18 09:31:10;;;;;;;8.67;4.13;;;5.50;81.80;;;4.08;81.16;99978.41;5073540;28;20832;-78
2022/01/18 09:33:37;;;;;;;7.60;3.80;;;5.50;81.30;;;3.94;81.53;99972.34;5072723;28;20438;-76
2022/01/18 09:36:04;;;;;;;11.80;4.07;;;5.50;81.70;;;3.96;81.30;99949.00;5074412;28;20533;-77
2022/01/18 09:38:31;;;;;;;9.38;4.53;;;5.50;81.90;;;4.24;80.48;99978.84;5072286;28;20521;-77
2022/01/18 09:41:00;;;;;;;8.33;3.60;;;5.60;81.40;;;4.07;80.42;99987.41;5073402;28;20438;-76
2022/01/18 09:43:28;;;;;;;5.37;3.37;;;5.50;81.20;;;4.10;79.93;99989.81;5071916;28;20566;-78
2022/01/18 09:45:58;;;;;;;5.30;3.37;;;5.50;80.30;;;3.92;80.61;99987.66;5073466;28;20479;-77
2022/01/18 09:48:26;;;;;;;7.83;3.53;;;5.40;80.40;;;3.79;81.66;99984.28;5055189;28;20754;-76
2022/01/18 09:50:54;;;;;;;11.60;3.80;;;5.20;81.30;;;3.80;81.13;99975.28;5073150;28;20451;-77
2022/01/18 09:53:21;;;;;;;7.83;3.80;;;5.20;81.00;;;4.15;80.25;99987.59;5072674;28;20829;-76
2022/01/18 09:55:49;;;;;;;6.80;3.50;;;5.50;81.10;;;4.12;79.55;99985.19;5071796;28;20469;-75
2022/01/18 09:58:16;;;;;;;9.67;4.23;;;5.50;80.20;;;4.21;80.10;99994.28;5073312;28;20443;-77
2022/01/18 10:00:44;;;;;;;8.37;3.23;;;5.50;80.80;;;4.34;79.40;99994.16;5073154;28;20904;-78
2022/01/18 10:03:30;;;;;;;9.27;3.70;;;5.60;80.40;;;4.32;78.81;99974.66;5074034;28;20470;-77
2022/01/18 10:05:58;;;;;;;7.20;4.00;;;5.80;80.50;;;4.32;79.55;99990.72;5073682;28;20461;-80
2022/01/18 10:08:26;;;;;;;10.37;3.90;;;5.70;80.20;;;4.26;78.44;99992.09;5073460;28;20433;-76
2022/01/18 10:10:56;;;;;;;7.93;3.97;;;5.70;79.80;;;4.10;80.32;99981.78;5072966;28;20472;-77
2022/01/18 10:13:25;;;;;;;7.67;3.50;;;5.60;80.30;;;4.24;80.18;99986.88;5072559;28;20469;-77
2022/01/18 10:16:06;;;;;;;4.77;3.53;;;5.60;81.30;;;4.48;79.37;99979.59;5073439;28;20433;-77
2022/01/18 10:18:44;;;;;;;14.60;4.27;;;5.80;81.10;;;4.74;77.32;99936.41;5071669;28;20429;-76
2022/01/18 10:21:12;;;;;;;8.40;4.10;;;6.10;79.70;;;4.99;76.34;99979.81;5055859;28;20438;-75
2022/01/18 10:23:39;;;;;;;6.53;3.20;;;6.30;79.20;;;5.02;76.70;99985.78;5072903;28;20475;-76
2022/01/18 10:26:22;;;;;;;6.23;4.80;;;6.40;78.80;;;4.88;76.75;99983.44;5071465;28;20471;-76
2022/01/18 10:29:01;;;;;;;8.13;3.80;;;6.30;78.50;;;4.73;76.92;99980.25;5074933;28;20494;-75
2022/01/18 10:31:38;;;;;;;8.53;4.57;;;6.20;78.50;;;4.63;78.12;99974.81;5076140;28;20553;-74
2022/01/18 10:34:28;;;;;;;5.43;3.20;;;6.00;79.50;;;4.69;78.50;99955.53;5076617;28;20528;-74
2022/01/18 10:37:02;;;;;;;6.40;3.20;;;6.10;79.50;;;4.95;76.93;99968.56;5076710;28;20514;-74
2022/01/18 10:39:35;;;;;;;5.43;3.67;;;6.30;79.00;;;4.65;77.34;99909.41;5076618;28;20465;-76
2022/01/18 10:42:14;;;;;;;6.63;3.90;;;6.40;79.20;;;5.01;77.18;99964.50;5047351;28;20457;-75
2022/01/18 10:44:41;;;;;;;8.17;3.67;;;6.50;78.60;;;5.06;78.28;99963.09;5038494;28;20439;-75
2022/01/18 10:47:08;;;;;;;6.60;3.00;;;6.40;79.50;;;5.09;77.72;99962.00;5038093;28;20478;-75
2022/01/18 10:49:40;;;;;;;8.13;3.80;;;6.50;79.50;;;5.04;78.12;99967.75;5038141;28;20526;-75
2022/01/18 10:52:10;;;;;;;12.93;4.30;;;6.40;79.10;;;5.22;77.09;99959.94;5038073;28;20530;-75
2022/01/18 10:54:44;;;;;;;5.37;3.27;;;6.60;79.10;;;4.98;76.76;99962.91;5056287;28;20882;-75
2022/01/18 10:57:13;;;;;;;4.87;2.97;;;6.50;78.30;;;4.92;77.14;99955.38;5055980;28;20523;-75
2022/01/18 10:59:41;;;;;;;3.90;2.67;;;6.40;78.40;;;5.09;76.32;99951.28;5055656;28;20443;-75
2022/01/18 11:02:17;;;;;;;9.93;3.20;;;6.50;78.50;;;5.02;76.18;99934.88;5055755;28;20486;-75
2022/01/18 11:04:49;;;;;;;9.40;3.03;;;6.50;78.50;;;5.16;76.81;99956.94;5037817;28;20496;-77
2022/01/18 11:07:18;;;;;;;7.43;3.07;;;6.50;78.30;;;5.15;76.16;99939.19;5037482;28;20545;-78
2022/01/18 11:09:45;;;;;;;4.30;2.20;;;6.60;78.00;;;5.23;74.86;99944.69;5055808;28;20448;-77
2022/01/18 11:12:13;;;;;;;4.53;1.80;;;6.60;77.60;;;5.26;72.67;99941.78;5056408;28;20443;-76
2022/01/18 11:14:44;;;;;;;3.30;1.67;;;6.60;75.60;;;5.17;73.39;99943.44;5055421;28;20477;-77
2022/01/18 11:17:21;;;;;;;2.80;1.70;;;6.60;75.80;;;5.16;73.26;99947.09;5038513;28;20473;-75
2022/01/18 11:19:51;;;;;;;3.83;1.90;;;6.50;75.50;;;5.24;73.82;99933.03;5037551;28;20442;-76